sensor_id;sensor_type;location;lat;lon;timestamp;P1;durP1;ratioP1;P2;durP2;ratioP2
64795;SDS011;51229;51.980;6.722;2022-10-17T00:02:00;7.80;;;5.40;;
64795;SDS011;51229;51.980;6.722;2022-10-17T00:04:26;8.10;;;5.60;;
64795;SDS011;51229;51.980;6.722;2022-10-17T00:06:52;7.97;;;5.05;;
64795;SDS011;51229;51.980;6.722;2022-10-17T00:09:17;8.93;;;5.95;;
64795;SDS011;51229;51.980;6.722;2022-10-17T00:11:43;9.52;;;6.18;;
64795;SDS011;51229;51.980;6.722;2022-10-17T00:14:09;10.18;;;5.88;;
64795;SDS011;51229;51.980;6.722;2022-10-17T00:16:35;6.95;;;5.30;;
64795;SDS011;51229;51.980;6.722;2022-10-17T00:19:02;6.93;;;5.18;;
64795;SDS011;51229;51.980;6.722;2022-10-17T00:21:29;9.52;;;5.28;;
64795;SDS011;51229;51.980;6.722;2022-10-17T00:23:54;7.15;;;4.78;;
64795;SDS011;51229;51.980;6.722;2022-10-17T00:26:20;9.23;;;5.60;;
64795;SDS011;51229;51.980;6.722;2022-10-17T00:28:46;8.50;;;5.05;;
64795;SDS011;51229;51.980;6.722;2022-10-17T00:31:12;8.15;;;5.30;;
64795;SDS011;51229;51.980;6.722;2022-10-17T00:33:38;10.50;;;4.93;;
64795;SDS011;51229;51.980;6.722;2022-10-17T00:36:08;9.00;;;5.72;;
64795;SDS011;51229;51.980;6.722;2022-10-17T00:38:41;8.10;;;5.85;;
64795;SDS011;51229;51.980;6.722;2022-10-17T00:41:09;6.70;;;5.63;;
64795;SDS011;51229;51.980;6.722;2022-10-17T00:43:49;8.27;;;6.03;;
64795;SDS011;51229;51.980;6.722;2022-10-17T00:46:35;7.43;;;5.55;;
64795;SDS011;51229;51.980;6.722;2022-10-17T00:49:06;8.30;;;5.40;;
64795;SDS011;51229;51.980;6.722;2022-10-17T00:51:37;11.63;;;5.78;;
64795;SDS011;51229;51.980;6.722;2022-10-17T00:54:08;9.95;;;6.07;;
64795;SDS011;51229;51.980;6.722;2022-10-17T00:56:35;8.07;;;5.35;;
64795;SDS011;51229;51.980;6.722;2022-10-17T00:59:01;7.25;;;5.70;;
64795;SDS011;51229;51.980;6.722;2022-10-17T01:01:27;8.27;;;4.82;;
64795;SDS011;51229;51.980;6.722;2022-10-17T01:03:52;7.70;;;5.32;;
64795;SDS011;51229;51.980;6.722;2022-10-17T01:06:18;8.75;;;6.00;;
64795;SDS011;51229;51.980;6.722;2022-10-17T01:08:43;9.70;;;6.30;;
64795;SDS011;51229;51.980;6.722;2022-10-17T01:11:29;8.13;;;5.75;;
64795;SDS011;51229;51.980;6.722;2022-10-17T01:14:20;9.38;;;6.22;;
64795;SDS011;51229;51.980;6.722;2022-10-17T01:17:19;11.60;;;6.53;;
64795;SDS011;51229;51.980;6.722;2022-10-17T01:20:05;7.93;;;5.55;;
64795;SDS011;51229;51.980;6.722;2022-10-17T01:34:14;10.38;;;6.72;;
64795;SDS011;51229;51.980;6.722;2022-10-17T01:39:41;8.38;;;6.45;;
64795;SDS011;51229;51.980;6.722;2022-10-17T01:45:09;10.07;;;6.95;;
64795;SDS011;51229;51.980;6.722;2022-10-17T01:47:42;9.73;;;6.65;;
64795;SDS011;51229;51.980;6.722;2022-10-17T01:50:12;10.13;;;6.90;;
64795;SDS011;51229;51.980;6.722;2022-10-17T01:52:44;8.70;;;6.65;;
64795;SDS011;51229;51.980;6.722;2022-10-17T01:55:16;10.07;;;7.20;;
64795;SDS011;51229;51.980;6.722;2022-10-17T01:57:55;9.30;;;6.70;;
64795;SDS011;51229;51.980;6.722;2022-10-17T02:00:25;8.57;;;5.97;;
64795;SDS011;51229;51.980;6.722;2022-10-17T02:02:54;11.70;;;7.40;;
64795;SDS011;51229;51.980;6.722;2022-10-17T02:05:24;10.00;;;7.18;;
64795;SDS011;51229;51.980;6.722;2022-10-17T02:07:53;12.50;;;7.90;;
64795;SDS011;51229;51.980;6.722;2022-10-17T02:11:04;11.57;;;6.68;;
64795;SDS011;51229;51.980;6.722;2022-10-17T02:13:17;11.90;;;8.05;;
64795;SDS011;51229;51.980;6.722;2022-10-17T02:16:12;14.15;;;8.13;;
64795;SDS011;51229;51.980;6.722;2022-10-17T02:18:52;13.13;;;8.80;;
64795;SDS011;51229;51.980;6.722;2022-10-17T02:21:37;10.75;;;7.47;;
64795;SDS011;51229;51.980;6.722;2022-10-17T02:29:33;9.40;;;7.00;;
64795;SDS011;51229;51.980;6.722;2022-10-17T02:32:07;11.40;;;7.25;;
64795;SDS011;51229;51.980;6.722;2022-10-17T02:34:39;11.55;;;8.18;;
64795;SDS011;51229;51.980;6.722;2022-10-17T02:37:08;10.55;;;7.75;;
64795;SDS011;51229;51.980;6.722;2022-10-17T02:39:37;9.43;;;6.30;;
64795;SDS011;51229;51.980;6.722;2022-10-17T02:42:05;12.32;;;7.55;;
64795;SDS011;51229;51.980;6.722;2022-10-17T02:44:36;12.88;;;8.32;;
64795;SDS011;51229;51.980;6.722;2022-10-17T02:47:11;11.02;;;8.30;;
64795;SDS011;51229;51.980;6.722;2022-10-17T02:49:51;10.38;;;7.05;;
64795;SDS011;51229;51.980;6.722;2022-10-17T02:55:17;13.23;;;8.32;;
64795;SDS011;51229;51.980;6.722;2022-10-17T02:57:51;14.13;;;7.78;;
64795;SDS011;51229;51.980;6.722;2022-10-17T03:00:20;13.25;;;7.82;;
64795;SDS011;51229;51.980;6.722;2022-10-17T03:02:49;12.73;;;8.20;;
64795;SDS011;51229;51.980;6.722;2022-10-17T03:05:18;12.90;;;8.45;;
64795;SDS011;51229;51.980;6.722;2022-10-17T03:07:46;11.55;;;8.30;;
64795;SDS011;51229;51.980;6.722;2022-10-17T03:10:12;12.77;;;8.15;;
64795;SDS011;51229;51.980;6.722;2022-10-17T03:12:37;12.18;;;8.07;;
64795;SDS011;51229;51.980;6.722;2022-10-17T03:15:04;13.95;;;8.60;;
64795;SDS011;51229;51.980;6.722;2022-10-17T03:17:30;14.90;;;8.60;;
64795;SDS011;51229;51.980;6.722;2022-10-17T03:19:56;13.65;;;8.50;;
64795;SDS011;51229;51.980;6.722;2022-10-17T03:22:23;14.30;;;9.27;;
64795;SDS011;51229;51.980;6.722;2022-10-17T03:24:48;15.40;;;9.40;;
64795;SDS011;51229;51.980;6.722;2022-10-17T03:27:14;14.25;;;8.23;;
64795;SDS011;51229;51.980;6.722;2022-10-17T03:29:40;11.68;;;8.82;;
64795;SDS011;51229;51.980;6.722;2022-10-17T03:32:08;16.13;;;8.48;;
64795;SDS011;51229;51.980;6.722;2022-10-17T03:34:35;15.38;;;9.18;;
64795;SDS011;51229;51.980;6.722;2022-10-17T03:37:00;13.18;;;8.90;;
64795;SDS011;51229;51.980;6.722;2022-10-17T03:39:28;13.98;;;8.57;;
64795;SDS011;51229;51.980;6.722;2022-10-17T03:41:54;17.20;;;9.02;;
64795;SDS011;51229;51.980;6.722;2022-10-17T03:44:19;12.77;;;8.32;;
64795;SDS011;51229;51.980;6.722;2022-10-17T03:46:45;13.20;;;8.85;;
64795;SDS011;51229;51.980;6.722;2022-10-17T03:49:11;11.60;;;8.65;;
64795;SDS011;51229;51.980;6.722;2022-10-17T03:51:37;14.75;;;9.38;;
64795;SDS011;51229;51.980;6.722;2022-10-17T03:54:08;15.82;;;9.07;;
64795;SDS011;51229;51.980;6.722;2022-10-17T03:56:33;13.18;;;8.52;;
64795;SDS011;51229;51.980;6.722;2022-10-17T03:59:02;13.80;;;8.57;;
64795;SDS011;51229;51.980;6.722;2022-10-17T04:01:31;15.95;;;9.65;;
64795;SDS011;51229;51.980;6.722;2022-10-17T04:03:57;12.85;;;9.18;;
64795;SDS011;51229;51.980;6.722;2022-10-17T04:06:27;15.40;;;9.45;;
64795;SDS011;51229;51.980;6.722;2022-10-17T04:08:53;12.82;;;9.07;;
64795;SDS011;51229;51.980;6.722;2022-10-17T04:11:41;15.23;;;9.43;;
64795;SDS011;51229;51.980;6.722;2022-10-17T04:14:08;13.82;;;9.32;;
64795;SDS011;51229;51.980;6.722;2022-10-17T04:16:35;17.02;;;9.60;;
64795;SDS011;51229;51.980;6.722;2022-10-17T04:19:09;17.10;;;9.88;;
64795;SDS011;51229;51.980;6.722;2022-10-17T04:21:40;17.58;;;9.63;;
64795;SDS011;51229;51.980;6.722;2022-10-17T04:24:07;14.75;;;9.60;;
64795;SDS011;51229;51.980;6.722;2022-10-17T04:26:50;15.90;;;9.77;;
64795;SDS011;51229;51.980;6.722;2022-10-17T04:29:17;13.88;;;9.05;;
64795;SDS011;51229;51.980;6.722;2022-10-17T04:31:45;13.25;;;9.40;;
64795;SDS011;51229;51.980;6.722;2022-10-17T04:36:44;16.70;;;9.15;;
64795;SDS011;51229;51.980;6.722;2022-10-17T04:39:11;18.75;;;10.15;;
64795;SDS011;51229;51.980;6.722;2022-10-17T04:41:37;13.30;;;9.65;;
64795;SDS011;51229;51.980;6.722;2022-10-17T04:44:03;16.02;;;10.15;;
64795;SDS011;51229;51.980;6.722;2022-10-17T04:46:32;19.67;;;9.77;;
64795;SDS011;51229;51.980;6.722;2022-10-17T04:48:58;13.43;;;9.45;;
64795;SDS011;51229;51.980;6.722;2022-10-17T04:51:24;13.75;;;9.68;;
64795;SDS011;51229;51.980;6.722;2022-10-17T04:54:10;14.90;;;9.77;;
64795;SDS011;51229;51.980;6.722;2022-10-17T04:56:39;14.85;;;9.38;;
64795;SDS011;51229;51.980;6.722;2022-10-17T04:59:05;16.45;;;9.77;;
64795;SDS011;51229;51.980;6.722;2022-10-17T05:01:32;15.20;;;9.15;;
64795;SDS011;51229;51.980;6.722;2022-10-17T05:03:58;17.60;;;9.27;;
64795;SDS011;51229;51.980;6.722;2022-10-17T05:06:24;14.57;;;9.13;;
64795;SDS011;51229;51.980;6.722;2022-10-17T05:09:10;12.82;;;8.45;;
64795;SDS011;51229;51.980;6.722;2022-10-17T05:11:36;16.10;;;8.43;;
64795;SDS011;51229;51.980;6.722;2022-10-17T05:14:03;14.73;;;9.32;;
64795;SDS011;51229;51.980;6.722;2022-10-17T05:16:30;13.93;;;9.15;;
64795;SDS011;51229;51.980;6.722;2022-10-17T05:18:57;16.13;;;9.38;;
64795;SDS011;51229;51.980;6.722;2022-10-17T05:21:28;12.55;;;8.35;;
64795;SDS011;51229;51.980;6.722;2022-10-17T05:23:54;19.02;;;9.48;;
64795;SDS011;51229;51.980;6.722;2022-10-17T05:26:21;12.23;;;8.25;;
64795;SDS011;51229;51.980;6.722;2022-10-17T05:28:48;16.10;;;10.05;;
64795;SDS011;51229;51.980;6.722;2022-10-17T05:31:15;13.65;;;8.27;;
64795;SDS011;51229;51.980;6.722;2022-10-17T05:33:41;14.95;;;9.43;;
64795;SDS011;51229;51.980;6.722;2022-10-17T05:36:07;19.23;;;9.10;;
64795;SDS011;51229;51.980;6.722;2022-10-17T05:38:33;15.50;;;9.02;;
64795;SDS011;51229;51.980;6.722;2022-10-17T05:41:01;13.35;;;8.70;;
64795;SDS011;51229;51.980;6.722;2022-10-17T05:43:30;17.48;;;9.27;;
64795;SDS011;51229;51.980;6.722;2022-10-17T05:45:56;14.80;;;8.88;;
64795;SDS011;51229;51.980;6.722;2022-10-17T05:48:22;15.35;;;9.40;;
64795;SDS011;51229;51.980;6.722;2022-10-17T05:50:49;15.43;;;9.07;;
64795;SDS011;51229;51.980;6.722;2022-10-17T05:53:21;11.48;;;8.35;;
64795;SDS011;51229;51.980;6.722;2022-10-17T05:55:56;12.70;;;8.50;;
64795;SDS011;51229;51.980;6.722;2022-10-17T05:58:23;13.10;;;9.00;;
64795;SDS011;51229;51.980;6.722;2022-10-17T06:00:57;13.70;;;9.05;;
64795;SDS011;51229;51.980;6.722;2022-10-17T06:03:25;12.25;;;8.60;;
64795;SDS011;51229;51.980;6.722;2022-10-17T06:05:51;13.98;;;8.55;;
64795;SDS011;51229;51.980;6.722;2022-10-17T06:08:17;17.33;;;8.77;;
64795;SDS011;51229;51.980;6.722;2022-10-17T06:10:46;15.13;;;9.25;;
64795;SDS011;51229;51.980;6.722;2022-10-17T06:13:13;16.33;;;9.68;;
64795;SDS011;51229;51.980;6.722;2022-10-17T06:15:39;11.48;;;8.85;;
64795;SDS011;51229;51.980;6.722;2022-10-17T06:18:06;14.43;;;8.75;;
64795;SDS011;51229;51.980;6.722;2022-10-17T06:20:32;15.10;;;9.13;;
64795;SDS011;51229;51.980;6.722;2022-10-17T06:22:58;16.08;;;9.60;;
64795;SDS011;51229;51.980;6.722;2022-10-17T06:25:37;14.50;;;9.70;;
64795;SDS011;51229;51.980;6.722;2022-10-17T06:28:03;12.95;;;9.20;;
64795;SDS011;51229;51.980;6.722;2022-10-17T06:30:29;18.60;;;9.95;;
64795;SDS011;51229;51.980;6.722;2022-10-17T06:32:55;12.45;;;9.15;;
64795;SDS011;51229;51.980;6.722;2022-10-17T06:35:21;17.38;;;9.68;;
64795;SDS011;51229;51.980;6.722;2022-10-17T06:37:47;14.73;;;9.10;;
64795;SDS011;51229;51.980;6.722;2022-10-17T06:40:13;12.88;;;8.45;;
64795;SDS011;51229;51.980;6.722;2022-10-17T06:42:41;15.40;;;9.07;;
64795;SDS011;51229;51.980;6.722;2022-10-17T06:45:45;13.60;;;9.02;;
64795;SDS011;51229;51.980;6.722;2022-10-17T06:48:29;16.42;;;8.73;;
64795;SDS011;51229;51.980;6.722;2022-10-17T06:51:26;14.88;;;8.73;;
64795;SDS011;51229;51.980;6.722;2022-10-17T06:53:55;15.65;;;8.52;;
64795;SDS011;51229;51.980;6.722;2022-10-17T06:56:34;14.77;;;8.77;;
64795;SDS011;51229;51.980;6.722;2022-10-17T06:59:18;12.95;;;8.52;;
64795;SDS011;51229;51.980;6.722;2022-10-17T07:01:51;14.07;;;9.27;;
64795;SDS011;51229;51.980;6.722;2022-10-17T07:04:16;15.52;;;9.52;;
64795;SDS011;51229;51.980;6.722;2022-10-17T07:06:42;15.38;;;9.40;;
64795;SDS011;51229;51.980;6.722;2022-10-17T07:09:14;12.90;;;8.57;;
64795;SDS011;51229;51.980;6.722;2022-10-17T07:11:41;20.00;;;9.25;;
64795;SDS011;51229;51.980;6.722;2022-10-17T07:14:06;15.70;;;9.23;;
64795;SDS011;51229;51.980;6.722;2022-10-17T07:16:33;16.10;;;8.90;;
64795;SDS011;51229;51.980;6.722;2022-10-17T07:19:19;15.32;;;8.98;;
64795;SDS011;51229;51.980;6.722;2022-10-17T07:21:45;13.20;;;9.13;;
64795;SDS011;51229;51.980;6.722;2022-10-17T07:24:11;14.10;;;8.52;;
64795;SDS011;51229;51.980;6.722;2022-10-17T07:26:39;13.65;;;8.05;;
64795;SDS011;51229;51.980;6.722;2022-10-17T07:29:05;12.50;;;8.23;;
64795;SDS011;51229;51.980;6.722;2022-10-17T07:31:41;11.95;;;8.48;;
64795;SDS011;51229;51.980;6.722;2022-10-17T07:34:09;11.77;;;7.45;;
64795;SDS011;51229;51.980;6.722;2022-10-17T07:36:35;11.75;;;8.02;;
64795;SDS011;51229;51.980;6.722;2022-10-17T07:39:03;12.40;;;7.35;;
64795;SDS011;51229;51.980;6.722;2022-10-17T07:41:30;11.80;;;7.80;;
64795;SDS011;51229;51.980;6.722;2022-10-17T07:43:56;11.82;;;7.25;;
64795;SDS011;51229;51.980;6.722;2022-10-17T07:46:28;11.88;;;8.25;;
64795;SDS011;51229;51.980;6.722;2022-10-17T07:48:54;10.77;;;7.35;;
64795;SDS011;51229;51.980;6.722;2022-10-17T07:51:20;11.15;;;7.45;;
64795;SDS011;51229;51.980;6.722;2022-10-17T07:53:46;11.52;;;7.68;;
64795;SDS011;51229;51.980;6.722;2022-10-17T07:56:12;10.38;;;7.88;;
64795;SDS011;51229;51.980;6.722;2022-10-17T07:58:38;9.57;;;6.78;;
64795;SDS011;51229;51.980;6.722;2022-10-17T08:01:05;9.32;;;6.60;;
64795;SDS011;51229;51.980;6.722;2022-10-17T08:03:34;8.48;;;6.13;;
64795;SDS011;51229;51.980;6.722;2022-10-17T08:06:01;9.75;;;6.05;;
64795;SDS011;51229;51.980;6.722;2022-10-17T08:08:27;11.27;;;6.85;;
64795;SDS011;51229;51.980;6.722;2022-10-17T08:10:54;10.70;;;6.85;;
64795;SDS011;51229;51.980;6.722;2022-10-17T08:13:25;10.27;;;6.60;;
64795;SDS011;51229;51.980;6.722;2022-10-17T08:15:50;10.50;;;6.63;;
64795;SDS011;51229;51.980;6.722;2022-10-17T08:18:16;10.80;;;6.10;;
64795;SDS011;51229;51.980;6.722;2022-10-17T08:20:42;10.65;;;6.15;;
64795;SDS011;51229;51.980;6.722;2022-10-17T08:23:08;8.88;;;5.63;;
64795;SDS011;51229;51.980;6.722;2022-10-17T08:25:34;10.65;;;6.45;;
64795;SDS011;51229;51.980;6.722;2022-10-17T08:28:02;10.18;;;6.35;;
64795;SDS011;51229;51.980;6.722;2022-10-17T08:30:28;12.52;;;6.38;;
64795;SDS011;51229;51.980;6.722;2022-10-17T08:32:54;11.05;;;6.15;;
64795;SDS011;51229;51.980;6.722;2022-10-17T08:35:20;9.02;;;5.60;;
64795;SDS011;51229;51.980;6.722;2022-10-17T08:37:46;12.95;;;5.88;;
64795;SDS011;51229;51.980;6.722;2022-10-17T08:40:23;12.20;;;6.10;;
64795;SDS011;51229;51.980;6.722;2022-10-17T08:45:36;8.77;;;5.90;;
64795;SDS011;51229;51.980;6.722;2022-10-17T08:48:11;10.15;;;5.93;;
64795;SDS011;51229;51.980;6.722;2022-10-17T08:50:42;10.75;;;6.18;;
64795;SDS011;51229;51.980;6.722;2022-10-17T08:53:14;9.90;;;5.90;;
64795;SDS011;51229;51.980;6.722;2022-10-17T08:55:46;10.00;;;5.85;;
64795;SDS011;51229;51.980;6.722;2022-10-17T08:58:20;11.88;;;5.78;;
64795;SDS011;51229;51.980;6.722;2022-10-17T09:03:29;9.55;;;5.95;;
64795;SDS011;51229;51.980;6.722;2022-10-17T09:06:14;9.85;;;5.88;;
64795;SDS011;51229;51.980;6.722;2022-10-17T09:08:58;10.02;;;5.60;;
64795;SDS011;51229;51.980;6.722;2022-10-17T09:14:31;9.88;;;5.78;;
64795;SDS011;51229;51.980;6.722;2022-10-17T09:17:22;12.30;;;6.10;;
64795;SDS011;51229;51.980;6.722;2022-10-17T09:20:17;11.05;;;5.38;;
64795;SDS011;51229;51.980;6.722;2022-10-17T09:22:50;11.55;;;5.55;;
64795;SDS011;51229;51.980;6.722;2022-10-17T09:25:41;8.95;;;5.35;;
64795;SDS011;51229;51.980;6.722;2022-10-17T09:33:35;9.35;;;5.50;;
64795;SDS011;51229;51.980;6.722;2022-10-17T09:36:16;9.70;;;5.03;;
64795;SDS011;51229;51.980;6.722;2022-10-17T09:38:47;8.32;;;5.43;;
64795;SDS011;51229;51.980;6.722;2022-10-17T09:41:19;11.25;;;5.65;;
64795;SDS011;51229;51.980;6.722;2022-10-17T09:49:44;7.45;;;5.38;;
64795;SDS011;51229;51.980;6.722;2022-10-17T09:52:18;12.75;;;5.70;;
64795;SDS011;51229;51.980;6.722;2022-10-17T09:57:57;10.95;;;5.15;;
64795;SDS011;51229;51.980;6.722;2022-10-17T10:00:29;12.98;;;5.43;;
64795;SDS011;51229;51.980;6.722;2022-10-17T10:05:37;9.10;;;5.65;;
64795;SDS011;51229;51.980;6.722;2022-10-17T10:08:05;10.05;;;5.75;;
64795;SDS011;51229;51.980;6.722;2022-10-17T10:10:41;9.18;;;5.70;;
64795;SDS011;51229;51.980;6.722;2022-10-17T10:15:37;12.10;;;5.65;;
64795;SDS011;51229;51.980;6.722;2022-10-17T10:21:08;11.23;;;6.00;;
64795;SDS011;51229;51.980;6.722;2022-10-17T10:23:44;9.77;;;5.25;;
64795;SDS011;51229;51.980;6.722;2022-10-17T10:26:43;13.68;;;5.68;;
64795;SDS011;51229;51.980;6.722;2022-10-17T10:29:21;13.32;;;6.35;;
64795;SDS011;51229;51.980;6.722;2022-10-17T10:31:53;10.18;;;6.20;;
64795;SDS011;51229;51.980;6.722;2022-10-17T10:34:26;10.32;;;6.60;;
64795;SDS011;51229;51.980;6.722;2022-10-17T10:37:36;11.38;;;6.47;;
64795;SDS011;51229;51.980;6.722;2022-10-17T10:42:31;9.73;;;6.63;;
64795;SDS011;51229;51.980;6.722;2022-10-17T10:45:13;12.15;;;7.68;;
64795;SDS011;51229;51.980;6.722;2022-10-17T10:47:49;11.80;;;7.65;;
64795;SDS011;51229;51.980;6.722;2022-10-17T10:50:33;12.15;;;7.72;;
64795;SDS011;51229;51.980;6.722;2022-10-17T10:55:43;9.50;;;6.65;;
64795;SDS011;51229;51.980;6.722;2022-10-17T11:04:41;10.88;;;7.60;;
64795;SDS011;51229;51.980;6.722;2022-10-17T11:09:39;13.48;;;7.60;;
64795;SDS011;51229;51.980;6.722;2022-10-17T11:12:29;11.43;;;7.95;;
64795;SDS011;51229;51.980;6.722;2022-10-17T11:25:49;11.70;;;8.23;;
64795;SDS011;51229;51.980;6.722;2022-10-17T11:28:18;11.95;;;8.98;;
64795;SDS011;51229;51.980;6.722;2022-10-17T11:33:40;16.67;;;9.50;;
64795;SDS011;51229;51.980;6.722;2022-10-17T11:36:11;21.90;;;9.60;;
64795;SDS011;51229;51.980;6.722;2022-10-17T11:38:46;17.88;;;9.50;;
64795;SDS011;51229;51.980;6.722;2022-10-17T11:41:14;18.38;;;10.93;;
64795;SDS011;51229;51.980;6.722;2022-10-17T11:43:52;13.32;;;10.02;;
64795;SDS011;51229;51.980;6.722;2022-10-17T11:46:22;13.75;;;9.77;;
64795;SDS011;51229;51.980;6.722;2022-10-17T11:51:34;16.65;;;9.93;;
64795;SDS011;51229;51.980;6.722;2022-10-17T11:54:16;14.38;;;10.05;;
64795;SDS011;51229;51.980;6.722;2022-10-17T11:59:56;16.38;;;11.15;;
64795;SDS011;51229;51.980;6.722;2022-10-17T12:05:44;16.95;;;12.18;;
64795;SDS011;51229;51.980;6.722;2022-10-17T12:17:01;17.55;;;11.50;;
64795;SDS011;51229;51.980;6.722;2022-10-17T12:19:29;16.33;;;11.50;;
64795;SDS011;51229;51.980;6.722;2022-10-17T12:22:15;16.08;;;10.75;;
64795;SDS011;51229;51.980;6.722;2022-10-17T12:24:54;17.40;;;11.02;;
64795;SDS011;51229;51.980;6.722;2022-10-17T12:35:31;15.88;;;8.93;;
64795;SDS011;51229;51.980;6.722;2022-10-17T12:37:59;12.65;;;9.32;;
64795;SDS011;51229;51.980;6.722;2022-10-17T12:45:49;14.93;;;8.80;;
64795;SDS011;51229;51.980;6.722;2022-10-17T12:51:12;13.07;;;8.65;;
64795;SDS011;51229;51.980;6.722;2022-10-17T12:56:38;13.32;;;8.90;;
64795;SDS011;51229;51.980;6.722;2022-10-17T13:01:47;11.75;;;8.45;;
64795;SDS011;51229;51.980;6.722;2022-10-17T13:04:16;13.52;;;8.52;;
64795;SDS011;51229;51.980;6.722;2022-10-17T13:06:47;14.75;;;8.55;;
64795;SDS011;51229;51.980;6.722;2022-10-17T13:11:49;14.82;;;8.60;;
64795;SDS011;51229;51.980;6.722;2022-10-17T13:14:18;15.35;;;9.23;;
64795;SDS011;51229;51.980;6.722;2022-10-17T13:16:55;12.82;;;8.15;;
64795;SDS011;51229;51.980;6.722;2022-10-17T13:19:28;12.75;;;8.50;;
64795;SDS011;51229;51.980;6.722;2022-10-17T13:21:56;15.73;;;9.10;;
64795;SDS011;51229;51.980;6.722;2022-10-17T13:27:03;14.90;;;9.65;;
64795;SDS011;51229;51.980;6.722;2022-10-17T13:29:30;15.27;;;10.10;;
64795;SDS011;51229;51.980;6.722;2022-10-17T13:32:03;11.55;;;9.23;;
64795;SDS011;51229;51.980;6.722;2022-10-17T13:34:30;14.25;;;9.25;;
64795;SDS011;51229;51.980;6.722;2022-10-17T13:37:00;14.02;;;9.73;;
64795;SDS011;51229;51.980;6.722;2022-10-17T13:39:37;13.90;;;9.70;;
64795;SDS011;51229;51.980;6.722;2022-10-17T13:42:05;11.32;;;8.77;;
64795;SDS011;51229;51.980;6.722;2022-10-17T13:44:46;14.07;;;9.18;;
64795;SDS011;51229;51.980;6.722;2022-10-17T13:47:46;11.82;;;8.48;;
64795;SDS011;51229;51.980;6.722;2022-10-17T13:50:05;14.43;;;9.40;;
64795;SDS011;51229;51.980;6.722;2022-10-17T13:52:31;14.48;;;10.07;;
64795;SDS011;51229;51.980;6.722;2022-10-17T13:55:07;15.07;;;9.68;;
64795;SDS011;51229;51.980;6.722;2022-10-17T13:57:40;17.58;;;10.50;;
64795;SDS011;51229;51.980;6.722;2022-10-17T14:00:18;12.50;;;9.95;;
64795;SDS011;51229;51.980;6.722;2022-10-17T14:02:45;16.10;;;10.43;;
64795;SDS011;51229;51.980;6.722;2022-10-17T14:05:17;16.33;;;9.95;;
64795;SDS011;51229;51.980;6.722;2022-10-17T14:12:46;17.30;;;10.05;;
64795;SDS011;51229;51.980;6.722;2022-10-17T14:15:13;15.05;;;9.48;;
64795;SDS011;51229;51.980;6.722;2022-10-17T14:17:39;14.90;;;10.93;;
64795;SDS011;51229;51.980;6.722;2022-10-17T14:20:07;15.05;;;9.43;;
64795;SDS011;51229;51.980;6.722;2022-10-17T14:22:41;13.80;;;10.57;;
64795;SDS011;51229;51.980;6.722;2022-10-17T14:27:53;17.73;;;10.38;;
64795;SDS011;51229;51.980;6.722;2022-10-17T14:30:31;17.00;;;10.38;;
64795;SDS011;51229;51.980;6.722;2022-10-17T14:33:00;14.23;;;10.30;;
64795;SDS011;51229;51.980;6.722;2022-10-17T14:35:27;17.30;;;10.57;;
64795;SDS011;51229;51.980;6.722;2022-10-17T14:38:01;16.70;;;10.02;;
64795;SDS011;51229;51.980;6.722;2022-10-17T14:40:29;14.93;;;9.88;;
64795;SDS011;51229;51.980;6.722;2022-10-17T14:42:57;16.20;;;10.77;;
64795;SDS011;51229;51.980;6.722;2022-10-17T14:45:26;17.77;;;11.55;;
64795;SDS011;51229;51.980;6.722;2022-10-17T14:48:02;16.75;;;10.10;;
64795;SDS011;51229;51.980;6.722;2022-10-17T14:50:33;15.52;;;10.15;;
64795;SDS011;51229;51.980;6.722;2022-10-17T14:55:35;19.50;;;10.65;;
64795;SDS011;51229;51.980;6.722;2022-10-17T14:58:15;18.40;;;11.70;;
64795;SDS011;51229;51.980;6.722;2022-10-17T15:00:42;18.05;;;11.63;;
64795;SDS011;51229;51.980;6.722;2022-10-17T15:03:08;16.15;;;11.02;;
64795;SDS011;51229;51.980;6.722;2022-10-17T15:05:34;19.40;;;11.30;;
64795;SDS011;51229;51.980;6.722;2022-10-17T15:08:00;17.33;;;11.20;;
64795;SDS011;51229;51.980;6.722;2022-10-17T15:15:25;19.33;;;12.38;;
64795;SDS011;51229;51.980;6.722;2022-10-17T15:17:54;19.80;;;12.65;;
64795;SDS011;51229;51.980;6.722;2022-10-17T15:20:20;18.05;;;12.70;;
64795;SDS011;51229;51.980;6.722;2022-10-17T15:22:50;20.75;;;12.32;;
64795;SDS011;51229;51.980;6.722;2022-10-17T15:25:17;17.73;;;12.55;;
64795;SDS011;51229;51.980;6.722;2022-10-17T15:27:43;20.05;;;13.43;;
64795;SDS011;51229;51.980;6.722;2022-10-17T15:30:20;19.88;;;12.90;;
64795;SDS011;51229;51.980;6.722;2022-10-17T15:32:48;21.08;;;11.13;;
64795;SDS011;51229;51.980;6.722;2022-10-17T15:35:14;22.00;;;13.50;;
64795;SDS011;51229;51.980;6.722;2022-10-17T15:37:40;19.80;;;13.80;;
64795;SDS011;51229;51.980;6.722;2022-10-17T15:40:14;19.90;;;13.50;;
64795;SDS011;51229;51.980;6.722;2022-10-17T15:42:52;18.52;;;12.57;;
64795;SDS011;51229;51.980;6.722;2022-10-17T15:45:18;18.52;;;13.15;;
64795;SDS011;51229;51.980;6.722;2022-10-17T15:47:56;20.25;;;13.57;;
64795;SDS011;51229;51.980;6.722;2022-10-17T15:50:27;20.63;;;13.60;;
64795;SDS011;51229;51.980;6.722;2022-10-17T15:52:54;18.77;;;13.27;;
64795;SDS011;51229;51.980;6.722;2022-10-17T15:55:20;17.88;;;12.68;;
64795;SDS011;51229;51.980;6.722;2022-10-17T15:57:46;18.75;;;13.25;;
64795;SDS011;51229;51.980;6.722;2022-10-17T16:00:17;18.42;;;13.02;;
64795;SDS011;51229;51.980;6.722;2022-10-17T16:02:45;22.27;;;13.95;;
64795;SDS011;51229;51.980;6.722;2022-10-17T16:05:22;21.33;;;13.80;;
64795;SDS011;51229;51.980;6.722;2022-10-17T16:07:53;21.58;;;13.27;;
64795;SDS011;51229;51.980;6.722;2022-10-17T16:10:19;24.05;;;13.65;;
64795;SDS011;51229;51.980;6.722;2022-10-17T16:12:45;19.02;;;12.45;;
64795;SDS011;51229;51.980;6.722;2022-10-17T16:15:20;21.25;;;13.75;;
64795;SDS011;51229;51.980;6.722;2022-10-17T16:17:48;20.30;;;13.73;;
64795;SDS011;51229;51.980;6.722;2022-10-17T16:20:15;21.90;;;13.98;;
64795;SDS011;51229;51.980;6.722;2022-10-17T16:22:42;21.13;;;13.38;;
64795;SDS011;51229;51.980;6.722;2022-10-17T16:25:22;16.75;;;12.90;;
64795;SDS011;51229;51.980;6.722;2022-10-17T16:27:53;19.20;;;12.98;;
64795;SDS011;51229;51.980;6.722;2022-10-17T16:30:21;20.73;;;14.00;;
64795;SDS011;51229;51.980;6.722;2022-10-17T16:32:47;23.75;;;14.20;;
64795;SDS011;51229;51.980;6.722;2022-10-17T16:35:16;17.10;;;12.35;;
64795;SDS011;51229;51.980;6.722;2022-10-17T16:37:43;22.63;;;14.30;;
64795;SDS011;51229;51.980;6.722;2022-10-17T16:40:09;20.35;;;14.27;;
64795;SDS011;51229;51.980;6.722;2022-10-17T16:42:35;23.58;;;13.95;;
64795;SDS011;51229;51.980;6.722;2022-10-17T16:45:01;20.63;;;13.63;;
64795;SDS011;51229;51.980;6.722;2022-10-17T16:47:27;21.63;;;14.07;;
64795;SDS011;51229;51.980;6.722;2022-10-17T16:49:52;17.10;;;11.90;;
64795;SDS011;51229;51.980;6.722;2022-10-17T16:52:18;23.27;;;13.63;;
64795;SDS011;51229;51.980;6.722;2022-10-17T16:54:44;21.58;;;14.75;;
64795;SDS011;51229;51.980;6.722;2022-10-17T16:57:09;21.27;;;14.32;;
64795;SDS011;51229;51.980;6.722;2022-10-17T16:59:35;22.35;;;16.23;;
64795;SDS011;51229;51.980;6.722;2022-10-17T17:02:01;19.65;;;14.70;;
64795;SDS011;51229;51.980;6.722;2022-10-17T17:04:26;20.42;;;14.50;;
64795;SDS011;51229;51.980;6.722;2022-10-17T17:06:52;18.83;;;14.55;;
64795;SDS011;51229;51.980;6.722;2022-10-17T17:09:18;21.33;;;14.75;;
64795;SDS011;51229;51.980;6.722;2022-10-17T17:11:44;22.90;;;14.30;;
64795;SDS011;51229;51.980;6.722;2022-10-17T17:14:09;19.65;;;13.63;;
64795;SDS011;51229;51.980;6.722;2022-10-17T17:16:35;18.60;;;12.77;;
64795;SDS011;51229;51.980;6.722;2022-10-17T17:19:02;18.33;;;12.68;;
64795;SDS011;51229;51.980;6.722;2022-10-17T17:21:30;18.63;;;13.18;;